aviador You're here:

KARB Decoded Metar

ANN ARBOR in MI, USA
Report Time2018-07-20 17:53:00
UTC Time2018-07-20 18:25:38
Flight Rules vfr VFR
Wind100° at 13 kt
W.Decomp.*RWY 12: 12.6 kt HW 3.4 kt LCW
RWY 06: 9.2 kt HW 9.2 kt RCW
W.Rank100° ranks 32
Current wind is above 100° avg. (6.0)
Visibility9999 m
Phenomena:Light Rain
Clouds:Overcast 100 Hf
Expected CloudBase > 400 ft AGL from Temp-Dew spread
Ceiling10,000 ft
Temp21°C (ISA +8)
Dew Point20°C (94% RH)
AAT20.0°C
QNH1010 hPa
Density Alt2,129 ft
Elevation823 ft
Report Wrong Elevation
Raw Report
KARB 201753Z 10013KT 7SM -RA OVC100 21/20 A2982 RMK AO2
RAB08E21B43 SLP094 P0000 60006 T02110200 10233 20206
58018=

Extra information for KARB:More info

Metar Taf Metar & Taf Last 4 Metars F.Rules Stats Wind Profile Meteogram Temp Stats Airport Information Weather charts Add Link Nearby VenuesMetar ALERT Operation Metar Decoded Social comments

AIRNAV info for KARB